sensor_id;sensor_type;location;lat;lon;timestamp;pressure;altitude;pressure_sealevel;temperature;humidity
27840;BME280;15207;42.182;24.308;2023-02-26T00:00:27;98141.97;;;12.09;62.87
27840;BME280;15207;42.182;24.308;2023-02-26T00:02:53;98137.59;;;12.08;62.99
27840;BME280;15207;42.182;24.308;2023-02-26T00:05:18;98136.94;;;12.06;63.12
27840;BME280;15207;42.182;24.308;2023-02-26T00:07:44;98128.31;;;12.02;62.83
27840;BME280;15207;42.182;24.308;2023-02-26T00:10:12;98130.84;;;12.03;62.24
27840;BME280;15207;42.182;24.308;2023-02-26T00:12:38;98130.56;;;12.07;61.05
27840;BME280;15207;42.182;24.308;2023-02-26T00:15:04;98128.91;;;12.14;59.65
27840;BME280;15207;42.182;24.308;2023-02-26T00:18:11;98136.75;;;11.81;63.47
27840;BME280;15207;42.182;24.308;2023-02-26T00:20:35;98149.63;;;11.50;66.87
27840;BME280;15207;42.182;24.308;2023-02-26T00:23:01;98134.94;;;11.18;69.04
27840;BME280;15207;42.182;24.308;2023-02-26T00:25:27;98134.31;;;10.88;70.47
27840;BME280;15207;42.182;24.308;2023-02-26T00:27:52;98138.13;;;10.85;70.79
27840;BME280;15207;42.182;24.308;2023-02-26T00:30:18;98131.94;;;10.67;71.64
27840;BME280;15207;42.182;24.308;2023-02-26T00:32:44;98130.78;;;10.41;72.88
27840;BME280;15207;42.182;24.308;2023-02-26T00:35:12;98134.88;;;10.45;73.07
27840;BME280;15207;42.182;24.308;2023-02-26T00:38:11;98130.38;;;10.36;73.17
27840;BME280;15207;42.182;24.308;2023-02-26T00:40:44;98130.91;;;10.50;73.06
27840;BME280;15207;42.182;24.308;2023-02-26T00:45:40;98112.81;;;10.24;73.31
27840;BME280;15207;42.182;24.308;2023-02-26T00:48:29;98124.03;;;10.37;73.17
27840;BME280;15207;42.182;24.308;2023-02-26T00:51:04;98119.28;;;10.31;72.25
27840;BME280;15207;42.182;24.308;2023-02-26T00:53:36;98104.38;;;10.18;72.21
27840;BME280;15207;42.182;24.308;2023-02-26T00:56:04;98105.75;;;10.32;71.75
27840;BME280;15207;42.182;24.308;2023-02-26T00:58:30;98094.41;;;10.49;70.46
27840;BME280;15207;42.182;24.308;2023-02-26T01:00:55;98094.97;;;10.52;69.31
27840;BME280;15207;42.182;24.308;2023-02-26T01:03:21;98103.38;;;10.57;68.66
27840;BME280;15207;42.182;24.308;2023-02-26T01:05:47;98095.59;;;10.82;67.30
27840;BME280;15207;42.182;24.308;2023-02-26T01:08:39;98098.50;;;10.89;66.85
27840;BME280;15207;42.182;24.308;2023-02-26T01:11:02;98089.31;;;10.92;66.04
27840;BME280;15207;42.182;24.308;2023-02-26T01:13:27;98095.59;;;10.82;66.86
27840;BME280;15207;42.182;24.308;2023-02-26T01:16:00;98094.38;;;10.77;66.82
27840;BME280;15207;42.182;24.308;2023-02-26T01:18:44;98098.19;;;10.92;66.21
27840;BME280;15207;42.182;24.308;2023-02-26T01:21:27;98105.41;;;11.10;64.54
27840;BME280;15207;42.182;24.308;2023-02-26T01:23:55;98104.63;;;11.44;61.81
27840;BME280;15207;42.182;24.308;2023-02-26T01:26:23;98097.44;;;11.45;61.70
27840;BME280;15207;42.182;24.308;2023-02-26T01:28:51;98091.81;;;11.56;59.93
27840;BME280;15207;42.182;24.308;2023-02-26T01:31:32;98095.44;;;11.73;58.74
27840;BME280;15207;42.182;24.308;2023-02-26T01:34:05;98082.97;;;11.90;56.71
27840;BME280;15207;42.182;24.308;2023-02-26T01:36:40;98068.88;;;12.15;56.43
27840;BME280;15207;42.182;24.308;2023-02-26T01:39:38;98078.28;;;12.19;56.60
27840;BME280;15207;42.182;24.308;2023-02-26T01:42:21;98072.75;;;12.21;56.41
27840;BME280;15207;42.182;24.308;2023-02-26T01:44:58;98069.19;;;12.12;57.14
27840;BME280;15207;42.182;24.308;2023-02-26T01:48:05;98081.09;;;12.69;53.05
27840;BME280;15207;42.182;24.308;2023-02-26T01:50:34;98062.50;;;12.84;52.65
27840;BME280;15207;42.182;24.308;2023-02-26T01:53:20;98056.97;;;13.19;51.37
27840;BME280;15207;42.182;24.308;2023-02-26T01:55:50;98063.00;;;13.38;51.55
27840;BME280;15207;42.182;24.308;2023-02-26T01:58:17;98079.63;;;13.00;55.82
27840;BME280;15207;42.182;24.308;2023-02-26T02:00:44;98076.59;;;12.18;60.42
27840;BME280;15207;42.182;24.308;2023-02-26T02:03:09;98089.50;;;11.88;62.74
27840;BME280;15207;42.182;24.308;2023-02-26T02:05:45;98074.75;;;11.57;63.84
27840;BME280;15207;42.182;24.308;2023-02-26T02:08:12;98073.00;;;11.21;65.89
27840;BME280;15207;42.182;24.308;2023-02-26T02:10:41;98079.97;;;10.96;67.33
27840;BME280;15207;42.182;24.308;2023-02-26T02:19:00;98077.00;;;10.35;70.46
27840;BME280;15207;42.182;24.308;2023-02-26T02:33:12;98073.38;;;11.27;61.74
27840;BME280;15207;42.182;24.308;2023-02-26T02:35:51;98086.31;;;11.58;59.43
27840;BME280;15207;42.182;24.308;2023-02-26T02:38:20;98082.00;;;12.35;52.69
27840;BME280;15207;42.182;24.308;2023-02-26T02:40:52;98079.13;;;13.13;50.52
27840;BME280;15207;42.182;24.308;2023-02-26T02:43:22;98086.50;;;13.69;49.14
27840;BME280;15207;42.182;24.308;2023-02-26T02:45:50;98077.47;;;14.10;47.67
27840;BME280;15207;42.182;24.308;2023-02-26T02:50:49;98099.03;;;14.81;46.35
27840;BME280;15207;42.182;24.308;2023-02-26T02:53:46;98087.13;;;14.99;44.92
27840;BME280;15207;42.182;24.308;2023-02-26T02:56:19;98078.19;;;15.22;41.97
27840;BME280;15207;42.182;24.308;2023-02-26T02:58:50;98084.03;;;15.49;40.87
27840;BME280;15207;42.182;24.308;2023-02-26T03:01:18;98084.06;;;15.79;39.97
27840;BME280;15207;42.182;24.308;2023-02-26T03:06:26;98084.75;;;16.11;39.40
27840;BME280;15207;42.182;24.308;2023-02-26T03:08:52;98101.81;;;16.12;39.54
27840;BME280;15207;42.182;24.308;2023-02-26T03:11:19;98077.09;;;16.15;41.03
27840;BME280;15207;42.182;24.308;2023-02-26T03:13:46;98092.28;;;16.16;41.18
27840;BME280;15207;42.182;24.308;2023-02-26T03:16:55;98088.09;;;16.13;40.21
27840;BME280;15207;42.182;24.308;2023-02-26T03:19:37;98070.75;;;15.93;40.52
27840;BME280;15207;42.182;24.308;2023-02-26T03:22:16;98072.88;;;15.82;41.73
27840;BME280;15207;42.182;24.308;2023-02-26T03:25:00;98102.19;;;15.70;41.33
27840;BME280;15207;42.182;24.308;2023-02-26T03:27:51;98072.56;;;15.47;41.29
27840;BME280;15207;42.182;24.308;2023-02-26T03:33:13;98082.66;;;15.30;42.67
27840;BME280;15207;42.182;24.308;2023-02-26T03:35:55;98066.78;;;15.35;39.76
27840;BME280;15207;42.182;24.308;2023-02-26T03:41:07;98077.09;;;15.70;39.30
27840;BME280;15207;42.182;24.308;2023-02-26T03:46:04;98060.06;;;15.84;38.84
27840;BME280;15207;42.182;24.308;2023-02-26T03:48:33;98054.38;;;15.79;39.77
27840;BME280;15207;42.182;24.308;2023-02-26T03:51:04;98071.28;;;15.96;39.13
27840;BME280;15207;42.182;24.308;2023-02-26T03:53:34;98058.06;;;16.02;39.38
27840;BME280;15207;42.182;24.308;2023-02-26T03:56:18;98053.53;;;15.79;40.43
27840;BME280;15207;42.182;24.308;2023-02-26T03:58:45;98031.19;;;15.55;41.02
27840;BME280;15207;42.182;24.308;2023-02-26T04:01:18;98032.09;;;15.47;40.95
27840;BME280;15207;42.182;24.308;2023-02-26T04:03:57;98049.97;;;15.48;41.09
27840;BME280;15207;42.182;24.308;2023-02-26T04:06:24;98039.28;;;15.40;41.69
27840;BME280;15207;42.182;24.308;2023-02-26T04:08:51;98037.38;;;15.25;41.31
27840;BME280;15207;42.182;24.308;2023-02-26T04:11:20;98036.91;;;15.22;41.39
27840;BME280;15207;42.182;24.308;2023-02-26T04:13:47;98023.09;;;15.01;41.53
27840;BME280;15207;42.182;24.308;2023-02-26T04:16:13;98017.22;;;14.74;42.18
27840;BME280;15207;42.182;24.308;2023-02-26T04:18:39;98013.97;;;14.55;42.02
27840;BME280;15207;42.182;24.308;2023-02-26T04:21:05;98013.00;;;14.48;42.06
27840;BME280;15207;42.182;24.308;2023-02-26T04:23:31;98024.63;;;14.49;42.03
27840;BME280;15207;42.182;24.308;2023-02-26T04:25:57;98022.25;;;14.46;41.97
27840;BME280;15207;42.182;24.308;2023-02-26T04:28:23;98005.28;;;14.45;42.19
27840;BME280;15207;42.182;24.308;2023-02-26T04:30:48;98007.72;;;14.55;41.51
27840;BME280;15207;42.182;24.308;2023-02-26T04:33:14;98010.22;;;14.65;41.26
27840;BME280;15207;42.182;24.308;2023-02-26T04:35:40;98003.44;;;14.69;40.99
27840;BME280;15207;42.182;24.308;2023-02-26T04:38:06;98013.38;;;14.68;40.39
27840;BME280;15207;42.182;24.308;2023-02-26T04:40:32;98015.97;;;14.85;40.02
27840;BME280;15207;42.182;24.308;2023-02-26T04:42:57;98015.06;;;14.93;39.89
27840;BME280;15207;42.182;24.308;2023-02-26T04:45:23;98014.59;;;14.89;39.59
27840;BME280;15207;42.182;24.308;2023-02-26T04:47:48;98010.53;;;14.93;40.00
27840;BME280;15207;42.182;24.308;2023-02-26T04:50:14;98015.34;;;14.75;40.29
27840;BME280;15207;42.182;24.308;2023-02-26T04:52:39;98003.78;;;14.66;40.35
27840;BME280;15207;42.182;24.308;2023-02-26T04:55:06;98010.28;;;14.48;40.79
27840;BME280;15207;42.182;24.308;2023-02-26T04:57:32;98008.44;;;14.25;41.24
27840;BME280;15207;42.182;24.308;2023-02-26T04:59:57;98016.69;;;14.24;41.33
27840;BME280;15207;42.182;24.308;2023-02-26T05:02:22;98019.16;;;14.34;41.41
27840;BME280;15207;42.182;24.308;2023-02-26T05:04:48;98016.56;;;14.40;41.68
27840;BME280;15207;42.182;24.308;2023-02-26T05:07:14;98007.69;;;14.63;40.50
27840;BME280;15207;42.182;24.308;2023-02-26T05:09:39;98013.06;;;15.10;39.50
27840;BME280;15207;42.182;24.308;2023-02-26T05:12:05;98022.28;;;15.54;38.59
27840;BME280;15207;42.182;24.308;2023-02-26T05:14:30;98020.59;;;15.83;37.92
27840;BME280;15207;42.182;24.308;2023-02-26T05:16:55;98027.50;;;16.01;37.74
27840;BME280;15207;42.182;24.308;2023-02-26T05:19:21;98035.41;;;16.03;37.18
27840;BME280;15207;42.182;24.308;2023-02-26T05:21:46;98031.09;;;16.23;36.93
27840;BME280;15207;42.182;24.308;2023-02-26T05:24:13;98041.88;;;16.38;36.76
27840;BME280;15207;42.182;24.308;2023-02-26T05:26:39;98045.88;;;16.43;35.94
27840;BME280;15207;42.182;24.308;2023-02-26T05:29:04;98038.88;;;16.70;35.50
27840;BME280;15207;42.182;24.308;2023-02-26T05:31:31;98033.47;;;16.70;35.69
27840;BME280;15207;42.182;24.308;2023-02-26T05:33:56;98031.22;;;16.52;36.16
27840;BME280;15207;42.182;24.308;2023-02-26T05:36:22;98042.19;;;16.29;36.75
27840;BME280;15207;42.182;24.308;2023-02-26T05:38:48;98042.09;;;16.22;36.93
27840;BME280;15207;42.182;24.308;2023-02-26T05:41:13;98048.88;;;16.18;36.91
27840;BME280;15207;42.182;24.308;2023-02-26T05:43:39;98038.56;;;16.06;36.87
27840;BME280;15207;42.182;24.308;2023-02-26T05:46:05;98048.63;;;16.28;36.17
27840;BME280;15207;42.182;24.308;2023-02-26T05:48:30;98050.91;;;16.46;35.61
27840;BME280;15207;42.182;24.308;2023-02-26T05:50:55;98046.66;;;16.58;35.48
27840;BME280;15207;42.182;24.308;2023-02-26T05:53:21;98054.16;;;16.78;35.74
27840;BME280;15207;42.182;24.308;2023-02-26T05:55:46;98047.69;;;16.79;35.06
27840;BME280;15207;42.182;24.308;2023-02-26T05:58:12;98043.91;;;16.95;34.63
27840;BME280;15207;42.182;24.308;2023-02-26T06:00:37;98046.25;;;16.98;34.88
27840;BME280;15207;42.182;24.308;2023-02-26T06:03:03;98055.47;;;17.04;34.28
27840;BME280;15207;42.182;24.308;2023-02-26T06:05:29;98051.09;;;17.25;33.89
27840;BME280;15207;42.182;24.308;2023-02-26T06:07:55;98053.56;;;17.26;33.95
27840;BME280;15207;42.182;24.308;2023-02-26T06:10:20;98061.47;;;17.50;33.33
27840;BME280;15207;42.182;24.308;2023-02-26T06:12:46;98052.31;;;17.51;33.69
27840;BME280;15207;42.182;24.308;2023-02-26T06:15:11;98057.38;;;17.61;33.45
27840;BME280;15207;42.182;24.308;2023-02-26T06:17:37;98069.41;;;17.80;33.02
27840;BME280;15207;42.182;24.308;2023-02-26T06:20:04;98076.06;;;17.84;32.31
27840;BME280;15207;42.182;24.308;2023-02-26T06:22:30;98078.97;;;18.11;32.26
27840;BME280;15207;42.182;24.308;2023-02-26T06:24:55;98087.53;;;18.15;32.88
27840;BME280;15207;42.182;24.308;2023-02-26T06:27:22;98101.53;;;18.25;33.55
27840;BME280;15207;42.182;24.308;2023-02-26T06:29:47;98088.47;;;18.35;33.72
27840;BME280;15207;42.182;24.308;2023-02-26T06:32:13;98086.38;;;18.31;33.32
27840;BME280;15207;42.182;24.308;2023-02-26T06:34:38;98092.69;;;18.52;33.06
27840;BME280;15207;42.182;24.308;2023-02-26T06:37:04;98092.50;;;18.53;32.64
27840;BME280;15207;42.182;24.308;2023-02-26T06:39:29;98083.81;;;18.71;32.44
27840;BME280;15207;42.182;24.308;2023-02-26T06:41:55;98087.19;;;18.87;32.61
27840;BME280;15207;42.182;24.308;2023-02-26T06:44:20;98091.53;;;18.81;32.96
27840;BME280;15207;42.182;24.308;2023-02-26T06:46:46;98075.69;;;18.78;32.42
27840;BME280;15207;42.182;24.308;2023-02-26T06:49:12;98065.81;;;18.57;33.74
27840;BME280;15207;42.182;24.308;2023-02-26T06:51:37;98068.16;;;18.73;33.23
27840;BME280;15207;42.182;24.308;2023-02-26T06:54:03;98067.72;;;18.63;33.39
27840;BME280;15207;42.182;24.308;2023-02-26T06:56:28;98079.34;;;18.50;33.28
27840;BME280;15207;42.182;24.308;2023-02-26T06:58:54;98074.16;;;18.55;33.72
27840;BME280;15207;42.182;24.308;2023-02-26T07:01:19;98072.72;;;18.59;34.21
27840;BME280;15207;42.182;24.308;2023-02-26T07:03:45;98072.09;;;18.64;34.07
27840;BME280;15207;42.182;24.308;2023-02-26T07:06:10;98078.78;;;18.68;34.04
27840;BME280;15207;42.182;24.308;2023-02-26T07:08:37;98056.47;;;18.80;34.16
27840;BME280;15207;42.182;24.308;2023-02-26T07:11:03;98064.41;;;18.81;33.61
27840;BME280;15207;42.182;24.308;2023-02-26T07:13:28;98064.25;;;18.89;33.48
27840;BME280;15207;42.182;24.308;2023-02-26T07:15:54;98072.66;;;19.08;33.58
27840;BME280;15207;42.182;24.308;2023-02-26T07:18:19;98067.44;;;19.13;33.02
27840;BME280;15207;42.182;24.308;2023-02-26T07:20:48;98062.63;;;19.15;33.21
27840;BME280;15207;42.182;24.308;2023-02-26T07:23:14;98072.25;;;19.32;33.18
27840;BME280;15207;42.182;24.308;2023-02-26T07:25:40;98038.63;;;19.33;33.18
27840;BME280;15207;42.182;24.308;2023-02-26T07:28:05;98066.38;;;19.41;32.67
27840;BME280;15207;42.182;24.308;2023-02-26T07:30:31;98058.66;;;19.45;32.63
27840;BME280;15207;42.182;24.308;2023-02-26T07:32:56;98043.41;;;19.58;32.55
27840;BME280;15207;42.182;24.308;2023-02-26T07:35:22;98058.25;;;19.48;32.60
27840;BME280;15207;42.182;24.308;2023-02-26T07:37:48;98048.25;;;19.55;33.17
27840;BME280;15207;42.182;24.308;2023-02-26T07:40:14;98059.91;;;19.49;32.27
27840;BME280;15207;42.182;24.308;2023-02-26T07:42:40;98043.66;;;19.29;32.11
27840;BME280;15207;42.182;24.308;2023-02-26T07:45:06;98055.97;;;19.38;32.50
27840;BME280;15207;42.182;24.308;2023-02-26T07:47:33;98059.31;;;19.47;32.47
27840;BME280;15207;42.182;24.308;2023-02-26T07:49:58;98069.09;;;19.41;33.42
27840;BME280;15207;42.182;24.308;2023-02-26T07:52:24;98045.50;;;19.28;33.65
27840;BME280;15207;42.182;24.308;2023-02-26T07:54:50;98058.03;;;19.43;34.13
27840;BME280;15207;42.182;24.308;2023-02-26T07:57:16;98054.06;;;19.46;34.02
27840;BME280;15207;42.182;24.308;2023-02-26T07:59:42;98045.28;;;19.50;34.41
27840;BME280;15207;42.182;24.308;2023-02-26T08:02:08;98063.69;;;19.41;34.15
27840;BME280;15207;42.182;24.308;2023-02-26T08:04:34;98044.69;;;19.41;33.76
27840;BME280;15207;42.182;24.308;2023-02-26T08:07:00;98053.88;;;19.47;33.60
27840;BME280;15207;42.182;24.308;2023-02-26T08:09:26;98056.16;;;19.57;33.39
27840;BME280;15207;42.182;24.308;2023-02-26T08:11:51;98053.63;;;19.76;33.11
27840;BME280;15207;42.182;24.308;2023-02-26T08:14:20;98058.38;;;19.94;32.07
27840;BME280;15207;42.182;24.308;2023-02-26T08:16:46;98038.88;;;20.24;32.03
27840;BME280;15207;42.182;24.308;2023-02-26T08:19:11;98043.59;;;20.42;30.78
27840;BME280;15207;42.182;24.308;2023-02-26T08:21:36;98044.97;;;20.65;30.75
27840;BME280;15207;42.182;24.308;2023-02-26T08:24:02;98034.16;;;20.91;30.93
27840;BME280;15207;42.182;24.308;2023-02-26T08:26:27;98037.47;;;20.99;30.46
27840;BME280;15207;42.182;24.308;2023-02-26T08:28:53;98028.94;;;21.21;30.28
27840;BME280;15207;42.182;24.308;2023-02-26T08:31:19;98029.00;;;21.40;30.45
27840;BME280;15207;42.182;24.308;2023-02-26T08:33:45;98024.94;;;21.68;31.24
27840;BME280;15207;42.182;24.308;2023-02-26T08:36:10;98027.66;;;21.68;30.04
27840;BME280;15207;42.182;24.308;2023-02-26T08:38:36;98020.56;;;21.67;30.93
27840;BME280;15207;42.182;24.308;2023-02-26T08:41:02;98023.81;;;21.57;31.14
27840;BME280;15207;42.182;24.308;2023-02-26T08:43:27;98035.56;;;21.51;30.72
27840;BME280;15207;42.182;24.308;2023-02-26T08:45:55;98024.25;;;21.54;30.93
27840;BME280;15207;42.182;24.308;2023-02-26T08:48:21;98023.25;;;21.23;31.21
27840;BME280;15207;42.182;24.308;2023-02-26T08:50:50;98019.25;;;21.25;31.45
27840;BME280;15207;42.182;24.308;2023-02-26T08:53:16;98032.03;;;21.25;31.26
27840;BME280;15207;42.182;24.308;2023-02-26T08:55:41;98013.88;;;21.44;31.45
27840;BME280;15207;42.182;24.308;2023-02-26T08:58:09;98024.81;;;21.37;31.21
27840;BME280;15207;42.182;24.308;2023-02-26T09:00:35;98033.91;;;21.50;31.03
27840;BME280;15207;42.182;24.308;2023-02-26T09:03:01;98035.22;;;21.66;30.91
27840;BME280;15207;42.182;24.308;2023-02-26T09:05:26;98036.84;;;21.74;31.25
27840;BME280;15207;42.182;24.308;2023-02-26T09:07:52;98039.59;;;21.74;30.76
27840;BME280;15207;42.182;24.308;2023-02-26T09:10:18;98040.47;;;21.67;31.32
27840;BME280;15207;42.182;24.308;2023-02-26T09:12:43;98049.75;;;22.04;30.82
27840;BME280;15207;42.182;24.308;2023-02-26T09:15:11;98050.56;;;22.23;31.10
27840;BME280;15207;42.182;24.308;2023-02-26T09:17:38;98057.00;;;22.48;30.28
27840;BME280;15207;42.182;24.308;2023-02-26T09:20:04;98063.34;;;22.60;30.74
27840;BME280;15207;42.182;24.308;2023-02-26T09:22:30;98052.91;;;22.88;29.75
27840;BME280;15207;42.182;24.308;2023-02-26T09:24:55;98035.59;;;22.82;30.20
27840;BME280;15207;42.182;24.308;2023-02-26T09:27:21;98054.56;;;22.89;29.94
27840;BME280;15207;42.182;24.308;2023-02-26T09:29:46;98051.34;;;22.80;29.85
27840;BME280;15207;42.182;24.308;2023-02-26T09:32:12;98042.97;;;22.63;29.88
27840;BME280;15207;42.182;24.308;2023-02-26T09:34:38;98043.19;;;22.61;30.61
27840;BME280;15207;42.182;24.308;2023-02-26T09:37:05;98032.16;;;22.37;30.56
27840;BME280;15207;42.182;24.308;2023-02-26T09:39:31;98036.59;;;22.69;30.60
27840;BME280;15207;42.182;24.308;2023-02-26T09:44:59;98036.41;;;22.82;30.35
27840;BME280;15207;42.182;24.308;2023-02-26T09:47:41;98033.13;;;22.92;30.30
27840;BME280;15207;42.182;24.308;2023-02-26T09:50:17;98042.75;;;22.95;29.61
27840;BME280;15207;42.182;24.308;2023-02-26T09:55:27;98037.88;;;22.66;30.11
27840;BME280;15207;42.182;24.308;2023-02-26T09:58:05;98021.38;;;22.61;30.43
27840;BME280;15207;42.182;24.308;2023-02-26T10:04:08;98028.69;;;22.79;30.20
27840;BME280;15207;42.182;24.308;2023-02-26T10:17:04;98033.34;;;22.60;30.14
27840;BME280;15207;42.182;24.308;2023-02-26T10:19:36;98027.59;;;22.68;29.58
27840;BME280;15207;42.182;24.308;2023-02-26T10:25:16;98028.88;;;22.66;30.47
27840;BME280;15207;42.182;24.308;2023-02-26T10:27:57;98034.25;;;22.72;29.69
27840;BME280;15207;42.182;24.308;2023-02-26T10:35:46;98027.09;;;22.59;29.62
27840;BME280;15207;42.182;24.308;2023-02-26T10:38:19;98012.31;;;22.49;29.74
27840;BME280;15207;42.182;24.308;2023-02-26T10:40:53;98024.28;;;22.48;29.76
27840;BME280;15207;42.182;24.308;2023-02-26T10:43:27;98020.09;;;22.64;29.46
27840;BME280;15207;42.182;24.308;2023-02-26T10:46:04;98020.56;;;22.61;29.19
27840;BME280;15207;42.182;24.308;2023-02-26T10:51:39;98014.91;;;22.74;29.73
27840;BME280;15207;42.182;24.308;2023-02-26T10:56:41;98011.03;;;22.82;29.21
27840;BME280;15207;42.182;24.308;2023-02-26T10:59:07;98019.66;;;22.79;29.28
27840;BME280;15207;42.182;24.308;2023-02-26T11:01:33;98006.69;;;22.62;29.80
27840;BME280;15207;42.182;24.308;2023-02-26T11:04:07;98010.63;;;22.48;29.96
27840;BME280;15207;42.182;24.308;2023-02-26T11:06:40;97988.50;;;22.25;30.34
27840;BME280;15207;42.182;24.308;2023-02-26T11:14:19;97984.28;;;22.11;30.99
27840;BME280;15207;42.182;24.308;2023-02-26T11:16:49;97999.84;;;22.22;30.21
27840;BME280;15207;42.182;24.308;2023-02-26T11:19:21;98012.53;;;22.28;30.52
27840;BME280;15207;42.182;24.308;2023-02-26T11:21:49;98018.19;;;22.45;29.42
27840;BME280;15207;42.182;24.308;2023-02-26T11:24:35;98000.41;;;22.43;29.53
27840;BME280;15207;42.182;24.308;2023-02-26T11:27:04;97989.72;;;22.41;29.42
27840;BME280;15207;42.182;24.308;2023-02-26T11:29:39;97981.97;;;22.26;28.98
27840;BME280;15207;42.182;24.308;2023-02-26T11:32:10;97992.22;;;22.12;29.46
27840;BME280;15207;42.182;24.308;2023-02-26T11:34:45;97976.59;;;22.19;29.86
27840;BME280;15207;42.182;24.308;2023-02-26T11:37:13;97987.44;;;22.08;29.41
27840;BME280;15207;42.182;24.308;2023-02-26T11:39:43;97987.94;;;22.35;29.19
27840;BME280;15207;42.182;24.308;2023-02-26T11:42:09;97980.38;;;22.68;29.02
27840;BME280;15207;42.182;24.308;2023-02-26T11:44:39;97976.97;;;22.72;29.05
27840;BME280;15207;42.182;24.308;2023-02-26T11:47:12;97968.81;;;23.08;28.40
27840;BME280;15207;42.182;24.308;2023-02-26T11:49:49;97959.47;;;23.28;28.50
27840;BME280;15207;42.182;24.308;2023-02-26T11:52:21;97958.41;;;23.53;28.10
27840;BME280;15207;42.182;24.308;2023-02-26T11:54:56;97950.31;;;23.70;27.98
27840;BME280;15207;42.182;24.308;2023-02-26T11:57:27;97959.56;;;23.81;27.33
27840;BME280;15207;42.182;24.308;2023-02-26T11:59:55;97944.53;;;23.43;26.21
27840;BME280;15207;42.182;24.308;2023-02-26T12:02:24;97943.84;;;23.35;26.23
27840;BME280;15207;42.182;24.308;2023-02-26T12:04:54;97932.53;;;23.20;26.25
27840;BME280;15207;42.182;24.308;2023-02-26T12:07:21;97937.66;;;23.40;26.60
27840;BME280;15207;42.182;24.308;2023-02-26T12:09:48;97935.53;;;23.42;26.52
27840;BME280;15207;42.182;24.308;2023-02-26T12:15:08;97943.63;;;23.90;26.38
27840;BME280;15207;42.182;24.308;2023-02-26T12:22:48;97956.13;;;23.02;28.37
27840;BME280;15207;42.182;24.308;2023-02-26T12:28:07;97950.53;;;22.85;29.29
27840;BME280;15207;42.182;24.308;2023-02-26T12:44:22;97980.47;;;23.04;25.73
27840;BME280;15207;42.182;24.308;2023-02-26T12:47:10;97975.81;;;22.92;25.92
27840;BME280;15207;42.182;24.308;2023-02-26T12:49:47;98003.25;;;23.09;27.06
27840;BME280;15207;42.182;24.308;2023-02-26T12:58:06;98008.94;;;23.08;26.68
27840;BME280;15207;42.182;24.308;2023-02-26T13:03:48;98031.84;;;23.19;26.78
27840;BME280;15207;42.182;24.308;2023-02-26T13:06:44;98027.72;;;23.28;26.89
27840;BME280;15207;42.182;24.308;2023-02-26T13:09:30;98037.22;;;23.25;26.88
27840;BME280;15207;42.182;24.308;2023-02-26T13:15:00;98065.41;;;23.07;27.65
27840;BME280;15207;42.182;24.308;2023-02-26T13:17:49;98052.69;;;22.89;27.59
27840;BME280;15207;42.182;24.308;2023-02-26T13:20:23;98056.78;;;22.80;27.43
27840;BME280;15207;42.182;24.308;2023-02-26T13:22:53;98070.06;;;22.76;28.47
27840;BME280;15207;42.182;24.308;2023-02-26T13:25:44;98081.06;;;22.69;29.00
27840;BME280;15207;42.182;24.308;2023-02-26T13:28:24;98092.22;;;22.49;28.22
27840;BME280;15207;42.182;24.308;2023-02-26T13:30:55;98096.22;;;22.09;29.41
27840;BME280;15207;42.182;24.308;2023-02-26T13:33:27;98096.72;;;21.80;30.47
27840;BME280;15207;42.182;24.308;2023-02-26T13:35:54;98090.59;;;21.34;30.56
27840;BME280;15207;42.182;24.308;2023-02-26T13:38:24;98083.75;;;21.25;31.08
27840;BME280;15207;42.182;24.308;2023-02-26T13:46:28;98083.97;;;20.84;31.00
27840;BME280;15207;42.182;24.308;2023-02-26T13:51:36;98098.13;;;20.54;32.11
27840;BME280;15207;42.182;24.308;2023-02-26T13:54:07;98095.75;;;20.26;32.49
27840;BME280;15207;42.182;24.308;2023-02-26T13:59:03;98114.78;;;20.19;32.62
27840;BME280;15207;42.182;24.308;2023-02-26T14:01:34;98114.38;;;20.22;32.67
27840;BME280;15207;42.182;24.308;2023-02-26T14:06:45;98108.25;;;20.33;33.25
27840;BME280;15207;42.182;24.308;2023-02-26T14:09:28;98118.72;;;20.37;33.20
27840;BME280;15207;42.182;24.308;2023-02-26T14:19:40;98117.97;;;19.62;33.43
27840;BME280;15207;42.182;24.308;2023-02-26T14:22:33;98131.53;;;19.55;34.63
27840;BME280;15207;42.182;24.308;2023-02-26T14:27:36;98131.34;;;19.63;34.69
27840;BME280;15207;42.182;24.308;2023-02-26T14:35:31;98138.41;;;19.17;35.61
27840;BME280;15207;42.182;24.308;2023-02-26T14:38:12;98144.03;;;19.15;35.91
27840;BME280;15207;42.182;24.308;2023-02-26T14:43:54;98142.72;;;19.05;35.85
27840;BME280;15207;42.182;24.308;2023-02-26T14:46:23;98141.72;;;19.06;35.72
27840;BME280;15207;42.182;24.308;2023-02-26T14:48:49;98154.53;;;18.90;36.51
27840;BME280;15207;42.182;24.308;2023-02-26T14:51:37;98147.03;;;18.85;36.38
27840;BME280;15207;42.182;24.308;2023-02-26T15:15:54;98157.97;;;18.57;36.79
27840;BME280;15207;42.182;24.308;2023-02-26T15:18:30;98143.38;;;18.58;36.82
27840;BME280;15207;42.182;24.308;2023-02-26T15:23:47;98160.78;;;18.84;36.30
27840;BME280;15207;42.182;24.308;2023-02-26T15:26:21;98177.09;;;18.90;36.71
27840;BME280;15207;42.182;24.308;2023-02-26T15:28:48;98186.44;;;18.81;36.21
27840;BME280;15207;42.182;24.308;2023-02-26T15:31:15;98171.59;;;18.77;36.76
27840;BME280;15207;42.182;24.308;2023-02-26T15:33:40;98177.25;;;18.82;36.48
27840;BME280;15207;42.182;24.308;2023-02-26T15:36:10;98172.66;;;18.76;36.73
27840;BME280;15207;42.182;24.308;2023-02-26T15:38:46;98168.66;;;18.72;36.97
27840;BME280;15207;42.182;24.308;2023-02-26T15:41:11;98167.81;;;18.64;37.20
27840;BME280;15207;42.182;24.308;2023-02-26T15:43:41;98166.72;;;18.59;37.23
27840;BME280;15207;42.182;24.308;2023-02-26T15:46:09;98162.13;;;18.53;36.80
27840;BME280;15207;42.182;24.308;2023-02-26T15:48:37;98169.91;;;18.62;36.69